Time;durP1;ratioP1;P1;durP2;ratioP2;P2;SDS_P1;SDS_P2;PMS_P1;PMS_P2;Temp;Humidity;BMP_temperature;BMP_pressure;BME280_temperature;BME280_humidity;BME280_pressure;Samples;Min_cycle;Max_cycle;Signal;HPM_P1;HPM_P2
2023/04/17 00:00:07;;;;;;;4.57;3.40;;;;;;;15.75;58.42;93910.03;5113304;28;20246;-48
2023/04/17 00:02:38;;;;;;;3.70;3.40;;;;;;;15.75;58.52;93907.47;5112646;28;20224;-47
2023/04/17 00:05:07;;;;;;;3.93;3.40;;;;;;;15.73;58.67;93905.09;5113431;28;20189;-47
2023/04/17 00:07:37;;;;;;;4.77;3.47;;;;;;;15.72;58.74;93900.91;5113100;28;20216;-47
2023/04/17 00:10:06;;;;;;;3.77;3.20;;;;;;;15.72;58.56;93905.28;5112961;28;20243;-47
2023/04/17 00:12:32;;;;;;;5.40;3.43;;;;;;;15.70;58.83;93902.88;5112666;28;20193;-47
2023/04/17 00:14:59;;;;;;;4.90;3.40;;;;;;;15.70;58.64;93891.78;5113054;28;20189;-47
2023/04/17 00:17:26;;;;;;;5.47;3.77;;;;;;;14.82;58.61;93757.38;5112920;28;20181;-47
2023/04/17 00:19:54;;;;;;;2.83;2.60;;;;;;;15.68;58.79;93897.13;5113022;28;20192;-47
2023/04/17 00:22:21;;;;;;;4.40;2.93;;;;;;;15.67;58.95;93887.81;5114302;28;20258;-47
2023/04/17 00:24:48;;;;;;;3.23;2.93;;;;;;;15.67;58.73;93892.97;5114000;28;20270;-47
2023/04/17 00:27:14;;;;;;;4.23;3.43;;;;;;;15.65;59.11;93894.91;5113000;28;20192;-46
2023/04/17 00:29:41;;;;;;;3.33;2.90;;;;;;;15.67;58.77;93894.72;5112410;28;20215;-47
2023/04/17 00:32:08;;;;;;;3.90;3.00;;;;;;;15.65;58.91;93902.63;5113086;28;20212;-47
2023/04/17 00:34:35;;;;;;;3.43;2.83;;;;;;;15.61;59.23;93896.25;5112506;28;20212;-46
2023/04/17 00:37:03;;;;;;;3.60;3.07;;;;;;;15.61;59.17;93893.66;5112537;28;20193;-47
2023/04/17 00:39:30;;;;;;;3.10;2.57;;;;;;;15.48;59.25;93878.09;5111999;28;20200;-47
2023/04/17 00:41:57;;;;;;;3.57;3.27;;;;;;;15.50;59.17;93883.84;5112287;28;20221;-48
2023/04/17 00:44:24;;;;;;;3.03;2.83;;;;;;;15.57;59.31;93885.50;5111752;28;20193;-47
2023/04/17 00:46:51;;;;;;;3.00;2.80;;;;;;;15.58;59.40;93894.03;5112091;28;20662;-48
2023/04/17 00:49:19;;;;;;;5.43;2.90;;;;;;;15.46;59.36;93873.16;5112186;28;20221;-47
2023/04/17 00:51:46;;;;;;;4.43;2.97;;;;;;;15.56;59.54;93888.28;5112720;28;20580;-47
2023/04/17 00:54:14;;;;;;;4.53;2.70;;;;;;;15.55;59.65;93886.69;5112191;28;20216;-47
2023/04/17 00:56:42;;;;;;;3.17;2.73;;;;;;;15.54;59.67;93883.31;5110730;28;20197;-47
2023/04/17 00:59:11;;;;;;;2.77;2.57;;;;;;;15.53;59.58;93873.97;5112152;28;20745;-47
2023/04/17 01:01:38;;;;;;;3.30;2.67;;;;;;;15.52;59.55;93872.38;5111549;28;20216;-46
2023/04/17 01:04:05;;;;;;;2.90;2.30;;;;;;;15.51;59.67;93870.81;5111897;28;20193;-46
2023/04/17 01:06:32;;;;;;;5.40;3.23;;;;;;;15.49;59.58;93874.53;5111688;28;20196;-47
2023/04/17 01:08:59;;;;;;;4.40;2.57;;;;;;;15.48;59.75;93870.38;5111907;28;20742;-46
2023/04/17 01:11:28;;;;;;;5.17;2.70;;;;;;;15.42;59.93;93860.84;5111428;28;20239;-47
2023/04/17 01:13:54;;;;;;;3.70;2.97;;;;;;;15.46;59.95;93872.38;5111587;28;20685;-47
2023/04/17 01:16:22;;;;;;;2.80;2.50;;;;;;;15.43;60.08;93868.38;5111681;28;20196;-47
2023/04/17 01:18:49;;;;;;;4.43;2.97;;;;;;;15.41;59.90;93869.53;5111909;28;20201;-47
2023/04/17 01:21:16;;;;;;;4.73;2.80;;;;;;;15.39;60.13;93864.56;5111595;28;20225;-47
2023/04/17 01:23:45;;;;;;;4.90;2.77;;;;;;;15.39;59.86;93866.34;5111572;28;20278;-47
2023/04/17 01:26:17;;;;;;;4.33;2.67;;;;;;;15.14;59.96;93828.13;5111619;28;20192;-47
2023/04/17 01:28:44;;;;;;;4.70;2.53;;;;;;;15.36;60.15;93859.78;5111383;28;20283;-47
2023/04/17 01:31:15;;;;;;;3.47;2.63;;;;;;;15.36;60.17;93866.72;5111043;28;20200;-47
2023/04/17 01:33:42;;;;;;;5.23;2.70;;;;;;;15.32;59.95;93874.03;5111333;28;20682;-47
2023/04/17 01:36:09;;;;;;;3.43;2.63;;;;;;;15.32;59.97;93872.25;5111103;28;20188;-48
2023/04/17 01:38:36;;;;;;;4.47;2.77;;;;;;;15.30;60.00;93868.28;5111408;28;20208;-48
2023/04/17 01:41:08;;;;;;;3.77;2.73;;;;;;;15.29;60.26;93870.06;5111601;28;20200;-46
2023/04/17 01:43:38;;;;;;;2.83;2.63;;;;;;;15.27;59.81;93859.13;5111637;28;20212;-47
2023/04/17 01:46:06;;;;;;;4.43;2.53;;;;;;;15.28;59.66;93858.16;5111192;28;20224;-46
2023/04/17 01:48:33;;;;;;;5.07;3.10;;;;;;;15.28;59.71;93853.00;5110941;28;20653;-46
2023/04/17 01:50:59;;;;;;;3.13;2.53;;;;;;;15.12;59.60;93821.59;5111111;28;20615;-48
2023/04/17 01:53:26;;;;;;;5.70;3.07;;;;;;;15.27;59.51;93859.13;5110771;28;20658;-48
2023/04/17 01:55:53;;;;;;;3.63;3.30;;;;;;;15.24;59.51;93849.22;5111168;28;20514;-48
2023/04/17 01:58:20;;;;;;;7.00;3.10;;;;;;;15.19;59.29;93838.66;5111027;28;20570;-46
2023/04/17 02:00:49;;;;;;;5.13;2.70;;;;;;;15.24;59.39;93846.63;5111025;28;20566;-47
2023/04/17 02:03:16;;;;;;;3.23;2.40;;;;;;;14.80;59.41;93780.72;5110718;28;20221;-49
2023/04/17 02:05:45;;;;;;;4.17;2.83;;;;;;;15.24;59.19;93841.50;5110801;28;20594;-46
2023/04/17 02:08:12;;;;;;;7.30;3.10;;;;;;;15.24;59.28;93841.50;5110201;28;20287;-47
2023/04/17 02:10:40;;;;;;;5.57;3.30;;;;;;;15.18;59.21;93831.91;5110683;28;20199;-48
2023/04/17 02:13:07;;;;;;;8.50;3.20;;;;;;;15.23;59.21;93839.88;5110449;28;20662;-48
2023/04/17 02:15:34;;;;;;;3.47;2.90;;;;;;;15.23;59.06;93833.94;5110615;28;20189;-47
2023/04/17 02:18:02;;;;;;;11.33;3.87;;;;;;;15.23;58.96;93836.50;5110296;28;20549;-47
2023/04/17 02:20:29;;;;;;;6.20;3.30;;;;;;;15.22;59.13;93843.44;5110188;28;20221;-46
2023/04/17 02:22:56;;;;;;;5.70;3.57;;;;;;;15.20;59.10;93834.31;5110504;28;20224;-46
2023/04/17 02:25:22;;;;;;;6.60;3.40;;;;;;;15.23;59.10;93839.88;5110299;28;20197;-46
2023/04/17 02:27:49;;;;;;;5.27;3.70;;;;;;;15.24;58.95;93845.81;5110510;28;20200;-47
2023/04/17 02:30:16;;;;;;;4.37;3.03;;;;;;;15.19;59.16;93833.50;5110061;28;20681;-47
2023/04/17 02:32:43;;;;;;;5.07;3.50;;;;;;;15.26;59.02;93849.81;5110278;28;20204;-47
2023/04/17 02:35:11;;;;;;;5.37;3.30;;;;;;;15.19;58.97;93835.28;5110166;28;20193;-48
2023/04/17 02:37:38;;;;;;;6.13;3.70;;;;;;;15.28;59.17;93842.72;5110335;28;20189;-48
2023/04/17 02:40:07;;;;;;;6.50;3.77;;;;;;;15.29;59.19;93841.72;5109853;28;20212;-48
2023/04/17 02:42:33;;;;;;;6.57;3.40;;;;;;;15.31;59.28;93846.66;5110187;28;20654;-47
2023/04/17 02:45:00;;;;;;;6.40;3.70;;;;;;;15.31;59.14;93846.66;5109952;28;20642;-47
2023/04/17 02:47:27;;;;;;;7.83;3.33;;;;;;;15.32;58.90;93843.09;5109981;28;20196;-47
2023/04/17 02:49:55;;;;;;;6.50;4.13;;;;;;;15.33;58.86;93847.28;5109834;28;20185;-48
2023/04/17 02:52:23;;;;;;;7.33;3.43;;;;;;;15.28;58.96;93832.41;5110068;28;20189;-47
2023/04/17 02:54:50;;;;;;;4.37;3.33;;;;;;;15.32;59.31;93845.69;5109499;28;20193;-47
2023/04/17 02:57:17;;;;;;;5.47;3.10;;;;;;;15.32;59.28;93849.06;5109795;28;20192;-47
2023/04/17 02:59:43;;;;;;;9.30;3.43;;;;;;;15.27;59.36;93840.31;5109417;28;20193;-47
2023/04/17 03:02:13;;;;;;;7.73;3.60;;;;;;;15.30;59.48;93843.31;5109812;28;20227;-47
2023/04/17 03:04:40;;;;;;;6.53;3.53;;;;;;;15.31;59.55;93851.81;5109636;28;20277;-47
2023/04/17 03:07:08;;;;;;;6.00;3.40;;;;;;;15.30;59.66;93853.59;5109730;28;20196;-47
2023/04/17 03:09:37;;;;;;;6.60;3.30;;;;;;;15.30;59.57;93856.19;5109341;28;20273;-47
2023/04/17 03:12:04;;;;;;;5.87;3.77;;;;;;;15.29;59.59;93853.81;5109535;28;20200;-47
2023/04/17 03:14:31;;;;;;;7.90;4.03;;;;;;;15.28;59.74;93855.59;5109936;28;20189;-47
2023/04/17 03:16:58;;;;;;;6.57;4.20;;;;;;;15.28;59.77;93862.50;5109074;28;20200;-47
2023/04/17 03:19:25;;;;;;;5.03;3.73;;;;;;;15.23;59.94;93846.81;5108810;28;20185;-47
2023/04/17 03:21:51;;;;;;;6.07;3.57;;;;;;;15.06;59.91;93823.09;5109146;28;20231;-47
2023/04/17 03:24:18;;;;;;;5.87;3.37;;;;;;;15.22;59.94;93853.75;5109447;28;20193;-47
2023/04/17 03:26:46;;;;;;;4.60;3.60;;;;;;;15.25;60.11;93855.94;5109427;28;20196;-47
2023/04/17 03:29:13;;;;;;;5.30;3.50;;;;;;;14.81;60.00;93789.25;5109526;28;20197;-46
2023/04/17 03:31:40;;;;;;;6.00;3.90;;;;;;;15.25;60.24;93857.75;5108983;28;20193;-47
2023/04/17 03:34:08;;;;;;;7.77;4.03;;;;;;;15.26;60.25;93859.31;5109301;28;20299;-47
2023/04/17 03:36:35;;;;;;;6.70;3.30;;;;;;;15.23;60.20;93857.13;5109170;28;20211;-48
2023/04/17 03:39:02;;;;;;;8.03;3.83;;;;;;;15.25;59.97;93860.31;5109181;28;20197;-47
2023/04/17 03:41:29;;;;;;;8.10;4.27;;;;;;;15.23;60.25;93855.31;5109282;28;20196;-48
2023/04/17 03:43:57;;;;;;;6.67;4.03;;;;;;;15.03;60.21;93826.88;5108954;28;20607;-47
2023/04/17 03:46:23;;;;;;;6.63;4.03;;;;;;;15.24;60.19;93861.28;5109289;28;20189;-48
2023/04/17 03:48:50;;;;;;;4.37;3.33;;;;;;;15.17;60.27;93850.94;5109257;28;20195;-47
2023/04/17 03:51:17;;;;;;;3.83;3.43;;;;;;;15.21;60.38;93857.31;5109379;28;20324;-47
2023/04/17 03:53:44;;;;;;;4.73;4.10;;;;;;;15.06;60.26;93835.97;5109474;28;20184;-48
2023/04/17 03:56:11;;;;;;;5.07;3.83;;;;;;;15.22;60.40;93861.47;5109230;28;20188;-47
2023/04/17 03:58:38;;;;;;;5.03;4.00;;;;;;;15.21;60.49;93856.50;5109353;28;20201;-47
2023/04/17 04:01:09;;;;;;;4.60;3.40;;;;;;;15.18;60.79;93864.59;5109108;28;20269;-47
2023/04/17 04:03:36;;;;;;;7.43;3.80;;;;;;;15.21;60.74;93866.81;5108752;28;20252;-47
2023/04/17 04:06:03;;;;;;;7.83;4.30;;;;;;;15.21;60.73;93864.25;5109601;28;20200;-47
2023/04/17 04:08:29;;;;;;;5.93;3.83;;;;;;;15.21;60.82;93869.38;5108795;28;20229;-47
2023/04/17 04:10:56;;;;;;;6.00;3.80;;;;;;;15.22;60.79;93856.31;5109032;28;20197;-47
2023/04/17 04:13:23;;;;;;;4.07;3.33;;;;;;;15.23;60.55;93863.06;5109168;28;20262;-48
2023/04/17 04:15:50;;;;;;;7.03;4.00;;;;;;;15.21;60.23;93856.50;5109103;28;20212;-47
2023/04/17 04:18:18;;;;;;;7.77;3.57;;;;;;;15.21;60.37;93859.09;5109036;28;20189;-47
2023/04/17 04:20:45;;;;;;;7.00;3.70;;;;;;;15.22;60.33;93858.91;5108753;28;20193;-47
2023/04/17 04:23:12;;;;;;;9.10;3.93;;;;;;;15.25;60.57;93865.47;5109166;28;20230;-47
2023/04/17 04:25:40;;;;;;;7.03;3.60;;;;;;;15.25;60.33;93863.69;5108972;28;20246;-47
2023/04/17 04:28:09;;;;;;;4.40;3.87;;;;;;;15.17;60.32;93848.34;5109360;28;20193;-47
2023/04/17 04:30:37;;;;;;;11.07;3.70;;;;;;;15.28;60.35;93867.66;5109374;28;20641;-47
2023/04/17 04:33:04;;;;;;;11.20;3.77;;;;;;;15.29;60.21;93867.47;5112704;28;20197;-47
2023/04/17 04:35:33;;;;;;;8.80;3.80;;;;;;;15.34;59.98;93868.69;5112369;28;20189;-47
2023/04/17 04:38:01;;;;;;;6.10;3.43;;;;;;;15.38;60.03;93878.44;5113588;28;20212;-47
2023/04/17 04:40:29;;;;;;;7.63;3.60;;;;;;;15.42;60.14;93881.44;5112728;28;20284;-47
2023/04/17 04:42:57;;;;;;;6.73;3.13;;;;;;;15.47;59.89;93873.94;5112536;28;20216;-47
2023/04/17 04:45:24;;;;;;;12.60;4.10;;;;;;;15.50;59.84;93882.09;5112208;28;20287;-47
2023/04/17 04:47:51;;;;;;;6.20;3.63;;;;;;;15.45;59.92;93861.22;5112718;28;20203;-47
2023/04/17 04:50:18;;;;;;;5.90;3.37;;;;;;;15.59;59.59;93874.19;5112124;28;20626;-46
2023/04/17 04:52:46;;;;;;;6.37;3.57;;;;;;;15.55;59.38;93866.88;5112666;28;20228;-48
2023/04/17 04:55:14;;;;;;;6.43;3.23;;;;;;;15.64;59.32;93867.56;5111973;28;21067;-47
2023/04/17 04:57:41;;;;;;;6.63;4.07;;;;;;;15.73;59.48;93868.19;5112515;28;20224;-48
2023/04/17 05:00:09;;;;;;;9.40;3.50;;;;;;;15.79;59.43;93881.13;5112461;28;20218;-47
2023/04/17 05:02:36;;;;;;;5.43;3.13;;;;;;;15.87;59.16;93879.38;5112200;28;20252;-48
2023/04/17 05:05:03;;;;;;;7.90;3.30;;;;;;;15.84;59.00;93869.44;5111886;28;20200;-47
2023/04/17 05:07:31;;;;;;;5.03;3.70;;;;;;;15.85;58.85;93871.84;5111590;28;20197;-47
2023/04/17 05:09:59;;;;;;;4.63;3.23;;;;;;;15.97;58.98;93885.78;5112000;28;20281;-47
2023/04/17 05:12:26;;;;;;;6.17;3.30;;;;;;;16.01;58.94;93883.63;5111674;28;20680;-47
2023/04/17 05:14:52;;;;;;;9.23;4.23;;;;;;;16.03;58.76;93889.38;5111872;28;20231;-48
2023/04/17 05:17:19;;;;;;;6.67;3.60;;;;;;;16.07;58.92;93890.59;5111754;28;20188;-47
2023/04/17 05:19:46;;;;;;;3.33;3.03;;;;;;;16.09;58.75;93893.78;5112073;28;20848;-48
2023/04/17 05:22:13;;;;;;;4.77;3.27;;;;;;;16.13;58.80;93896.78;5111541;28;20184;-47
2023/04/17 05:24:40;;;;;;;5.97;3.57;;;;;;;16.08;58.47;93887.03;5112267;28;20192;-47
2023/04/17 05:27:08;;;;;;;4.60;3.30;;;;;;;16.17;58.53;93892.81;5111429;28;20196;-47
2023/04/17 05:29:36;;;;;;;8.83;4.10;;;;;;;16.19;58.50;93891.66;5111680;28;20192;-47
2023/04/17 05:32:03;;;;;;;5.60;3.77;;;;;;;16.22;58.25;93882.72;5111167;28;20189;-47
2023/04/17 05:34:29;;;;;;;4.17;3.63;;;;;;;16.26;58.43;93889.09;5111536;28;20201;-47
2023/04/17 05:36:56;;;;;;;3.87;3.27;;;;;;;16.30;58.19;93885.13;5111535;28;20196;-47
2023/04/17 05:39:23;;;;;;;5.83;3.40;;;;;;;16.33;58.07;93894.28;5111250;28;20196;-47
2023/04/17 05:41:49;;;;;;;3.97;3.30;;;;;;;16.33;58.13;93894.28;5111282;28;20189;-47
2023/04/17 05:44:18;;;;;;;4.13;3.53;;;;;;;16.33;58.00;93895.09;5110460;28;20337;-47
2023/04/17 05:46:44;;;;;;;4.30;3.43;;;;;;;16.32;58.06;93893.50;5111194;28;20200;-47
2023/04/17 05:49:11;;;;;;;7.00;3.83;;;;;;;16.31;58.10;93895.25;5110957;28;20200;-47
2023/04/17 05:51:38;;;;;;;6.00;3.73;;;;;;;16.30;58.03;93895.47;5111439;28;20204;-47
2023/04/17 05:54:05;;;;;;;7.07;3.43;;;;;;;16.29;57.99;93901.63;5111142;28;20233;-46
2023/04/17 05:56:32;;;;;;;4.53;3.40;;;;;;;16.28;58.09;93895.66;5110944;28;20197;-47
2023/04/17 05:58:58;;;;;;;5.47;3.67;;;;;;;16.29;57.83;93899.03;5110786;28;20189;-48
2023/04/17 06:01:28;;;;;;;8.13;3.77;;;;;;;16.29;57.96;93904.19;5110970;28;20197;-46
2023/04/17 06:03:55;;;;;;;6.17;3.67;;;;;;;16.29;57.96;93901.63;5110637;28;20488;-47
2023/04/17 06:06:22;;;;;;;7.07;3.43;;;;;;;16.30;57.77;93909.16;5111032;28;20225;-47
2023/04/17 06:08:51;;;;;;;6.27;3.50;;;;;;;16.32;57.78;93914.16;5110886;28;20316;-47
2023/04/17 06:11:17;;;;;;;8.87;4.07;;;;;;;16.35;57.76;93913.75;5110916;28;20240;-47
2023/04/17 06:13:44;;;;;;;3.77;3.30;;;;;;;16.41;57.70;93913.00;5110588;28;20189;-46
2023/04/17 06:16:11;;;;;;;7.40;3.67;;;;;;;16.50;57.68;93914.41;5110234;28;20249;-47
2023/04/17 06:18:40;;;;;;;9.00;3.57;;;;;;;16.42;57.63;93893.94;5110951;28;20214;-48
2023/04/17 06:21:07;;;;;;;4.40;3.10;;;;;;;16.67;57.39;93922.59;5110470;28;20220;-46
2023/04/17 06:23:34;;;;;;;4.27;3.87;;;;;;;16.70;57.10;93913.66;5110662;28;20233;-47
2023/04/17 06:26:01;;;;;;;6.40;3.40;;;;;;;16.74;57.04;93917.47;5110521;28;20304;-51
2023/04/17 06:28:28;;;;;;;4.40;4.00;;;;;;;16.00;57.23;93807.25;5110654;28;20228;-47
2023/04/17 06:30:54;;;;;;;7.17;4.03;;;;;;;16.83;57.04;93925.84;5110198;28;20265;-52
2023/04/17 06:33:21;;;;;;;8.27;3.47;;;;;;;16.90;56.91;93929.25;5110221;28;20215;-48
2023/04/17 06:35:49;;;;;;;6.10;3.80;;;;;;;16.89;56.94;93928.47;5110495;28;20197;-48
2023/04/17 06:38:16;;;;;;;4.33;3.87;;;;;;;16.95;56.78;93937.22;5110262;28;20193;-47
2023/04/17 06:40:43;;;;;;;4.67;3.57;;;;;;;16.97;56.82;93933.44;5109947;28;20192;-47
2023/04/17 06:43:10;;;;;;;6.80;3.70;;;;;;;16.98;56.68;93934.25;5110051;28;20217;-48
2023/04/17 06:45:37;;;;;;;6.20;3.60;;;;;;;17.02;56.69;93931.06;5110309;28;20226;-47
2023/04/17 06:48:04;;;;;;;6.77;4.17;;;;;;;17.08;56.56;93937.22;5109787;28;20199;-49
2023/04/17 06:50:30;;;;;;;6.47;3.97;;;;;;;17.15;56.30;93932.09;5110475;28;20280;-48
2023/04/17 06:52:59;;;;;;;6.53;3.60;;;;;;;17.21;56.21;93931.28;5109911;28;20197;-48
2023/04/17 06:55:26;;;;;;;7.30;3.90;;;;;;;17.25;56.10;93935.88;5109298;28;20267;-48
2023/04/17 06:57:53;;;;;;;6.57;3.93;;;;;;;17.30;56.01;93933.47;5110031;28;20261;-47
2023/04/17 07:00:21;;;;;;;8.77;3.80;;;;;;;17.39;55.91;93934.09;5109986;28;20579;-48
2023/04/17 07:02:48;;;;;;;6.33;4.17;;;;;;;17.41;55.89;93931.31;5109729;28;20207;-48
2023/04/17 07:05:15;;;;;;;6.13;3.93;;;;;;;17.54;55.50;93929.53;5110122;28;20199;-47
2023/04/17 07:07:42;;;;;;;3.70;3.23;;;;;;;17.68;55.38;93930.31;5109769;28;20193;-48
2023/04/17 07:10:11;;;;;;;5.07;3.80;;;;;;;17.83;55.23;93935.28;5109704;28;20276;-47
2023/04/17 07:12:38;;;;;;;7.80;4.43;;;;;;;17.97;54.90;93936.09;5109530;28;20189;-47
2023/04/17 07:15:05;;;;;;;6.07;4.00;;;;;;;17.99;54.73;93923.75;5109826;28;20216;-47
2023/04/17 07:17:32;;;;;;;6.93;3.63;;;;;;;18.23;54.55;93946.41;5109498;28;20666;-48
2023/04/17 07:19:59;;;;;;;4.70;3.53;;;;;;;18.21;54.38;93929.47;5109435;28;20626;-47
2023/04/17 07:22:25;;;;;;;4.17;3.63;;;;;;;18.38;54.21;93935.78;5109383;28;20230;-46
2023/04/17 07:24:52;;;;;;;5.57;3.60;;;;;;;18.44;54.14;93947.94;5109118;28;20228;-47
2023/04/17 07:27:20;;;;;;;6.30;4.00;;;;;;;18.50;54.13;93956.69;5109619;28;20192;-47
2023/04/17 07:29:53;;;;;;;4.90;3.40;;;;;;;18.56;53.86;93956.63;5109323;28;20541;-47
2023/04/17 07:32:20;;;;;;;4.97;3.80;;;;;;;18.66;53.62;93945.06;5109370;28;20723;-48
2023/04/17 07:34:47;;;;;;;5.47;3.97;;;;;;;18.78;53.40;93951.19;5109253;28;20752;-48
2023/04/17 07:37:15;;;;;;;4.20;3.80;;;;;;;18.90;53.21;93946.97;5109467;28;20639;-47
2023/04/17 07:39:41;;;;;;;7.17;4.13;;;;;;;19.02;53.06;93947.13;5109507;28;20205;-49
2023/04/17 07:42:10;;;;;;;7.40;4.07;;;;;;;19.07;52.88;93933.53;5109991;28;20200;-48
2023/04/17 07:44:38;;;;;;;6.53;4.10;;;;;;;19.40;52.58;93949.69;5109010;28;20224;-47
2023/04/17 07:47:05;;;;;;;6.37;3.83;;;;;;;19.72;52.01;93944.47;5109276;28;20204;-47
2023/04/17 07:49:32;;;;;;;6.03;3.73;;;;;;;19.97;51.61;93942.66;5109182;28;20192;-48
2023/04/17 07:51:59;;;;;;;5.80;3.70;;;;;;;20.23;51.36;93943.41;5109476;28;20189;-48
2023/04/17 07:54:26;;;;;;;4.80;3.67;;;;;;;20.43;51.22;93943.22;5109017;28;20189;-47
2023/04/17 07:56:57;;;;;;;5.37;3.47;;;;;;;20.58;51.04;93941.06;5109244;28;20192;-47
2023/04/17 07:59:23;;;;;;;8.93;3.87;;;;;;;20.67;50.75;93947.53;5109045;28;20273;-48
2023/04/17 08:01:52;;;;;;;4.53;3.90;;;;;;;20.79;50.83;93945.00;5109307;28;20199;-48
2023/04/17 08:04:19;;;;;;;6.13;3.97;;;;;;;20.45;50.53;93891.84;5109044;28;20225;-47
2023/04/17 08:06:46;;;;;;;5.93;4.10;;;;;;;20.78;50.51;93928.63;5111456;28;20189;-47
2023/04/17 08:09:13;;;;;;;6.33;3.87;;;;;;;21.03;50.27;93951.13;5113129;28;20334;-48
2023/04/17 08:11:42;;;;;;;6.37;3.90;;;;;;;21.14;50.19;93947.75;5113169;28;20250;-47
2023/04/17 08:14:10;;;;;;;6.63;4.27;;;;;;;21.20;49.94;93956.47;5113008;28;20189;-47
2023/04/17 08:16:37;;;;;;;7.40;4.70;;;;;;;21.14;49.68;93941.75;5112857;28;20201;-48
2023/04/17 08:19:05;;;;;;;7.05;4.35;;;;;;;21.26;49.40;93955.59;5113197;28;20581;-47
2023/04/17 08:21:32;;;;;;;4.73;3.77;;;;;;;21.22;49.47;93951.84;5112941;28;20195;-47
2023/04/17 08:23:59;;;;;;;5.05;3.45;;;;;;;21.25;49.43;93947.00;5112620;28;20705;-48
2023/04/17 08:26:27;;;;;;;4.20;3.80;;;;;;;21.28;49.40;93956.94;5112640;28;20254;-48
2023/04/17 08:28:54;;;;;;;4.40;4.00;;;;;;;21.33;49.28;93958.13;5112793;28;20280;-47
2023/04/17 08:31:21;;;;;;;4.47;3.88;;;;;;;21.33;49.15;93953.75;5112381;28;20185;-48
2023/04/17 08:33:48;;;;;;;5.88;3.95;;;;;;;21.29;49.21;93955.16;5112345;28;20670;-49
2023/04/17 08:36:16;;;;;;;5.50;4.20;;;;;;;21.19;49.18;93966.09;5112654;28;20193;-47
2023/04/17 08:38:44;;;;;;;5.13;3.67;;;;;;;21.06;49.45;93966.25;5112406;28;20254;-47
2023/04/17 08:41:13;;;;;;;4.50;3.67;;;;;;;20.91;49.50;93960.66;5111932;28;20200;-48
2023/04/17 08:43:41;;;;;;;5.00;4.32;;;;;;;20.79;49.78;93973.59;5112287;28;20224;-48
2023/04/17 08:46:08;;;;;;;6.22;4.38;;;;;;;20.70;49.89;93964.53;5112403;28;20335;-49
2023/04/17 08:48:35;;;;;;;6.13;4.17;;;;;;;20.68;50.04;93969.94;5112258;28;20192;-47
2023/04/17 08:51:02;;;;;;;5.07;4.10;;;;;;;20.73;50.21;93972.69;5112266;28;20696;-47
2023/04/17 08:53:30;;;;;;;6.47;4.30;;;;;;;20.78;50.06;93974.63;5113248;28;20269;-48
2023/04/17 08:56:03;;;;;;;8.97;4.53;;;;;;;20.84;49.98;93962.53;5113681;28;20193;-48
2023/04/17 08:58:32;;;;;;;7.83;4.50;;;;;;;20.90;50.22;93965.09;5111835;28;20193;-48
2023/04/17 09:01:07;;;;;;;4.63;3.67;;;;;;;20.98;50.08;93966.56;5112170;28;20196;-47
2023/04/17 09:03:40;;;;;;;5.93;4.20;;;;;;;21.05;49.84;93969.88;5111590;28;20269;-47
2023/04/17 09:06:09;;;;;;;10.70;4.25;;;;;;;21.12;50.13;93965.41;5112119;28;20189;-47
2023/04/17 09:08:37;;;;;;;7.70;4.37;;;;;;;21.21;49.92;93969.28;5111447;28;20316;-47
2023/04/17 09:11:04;;;;;;;4.47;3.77;;;;;;;21.29;49.94;93968.97;5112340;28;20189;-48
2023/04/17 09:13:40;;;;;;;5.30;3.92;;;;;;;21.37;49.84;93970.47;5111664;28;20672;-49
2023/04/17 09:16:09;;;;;;;5.28;4.32;;;;;;;21.47;49.90;93968.13;5111680;28;20185;-49
2023/04/17 09:18:36;;;;;;;7.65;4.15;;;;;;;21.54;49.87;93968.03;5110826;28;20196;-48
2023/04/17 09:21:05;;;;;;;8.23;4.35;;;;;;;21.59;49.69;93955.16;5111486;28;20265;-48
2023/04/17 09:23:48;;;;;;;6.70;4.20;;;;;;;21.65;49.61;93967.25;5111608;28;20620;-48
2023/04/17 09:26:17;;;;;;;5.25;4.18;;;;;;;21.56;49.78;93934.78;5111650;28;20197;-49
2023/04/17 09:29:02;;;;;;;7.65;4.70;;;;;;;21.81;49.48;93962.44;5111708;28;20197;-48
2023/04/17 09:31:31;;;;;;;8.85;4.38;;;;;;;21.92;49.29;93961.63;5111312;28;20193;-48
2023/04/17 09:33:58;;;;;;;5.88;4.07;;;;;;;22.01;49.21;93949.88;5111621;28;20657;-49
2023/04/17 09:36:26;;;;;;;4.53;4.07;;;;;;;22.02;49.14;93947.06;5111109;28;20666;-48
2023/04/17 09:38:54;;;;;;;4.45;4.03;;;;;;;21.67;49.14;93894.97;5111376;28;20289;-47
2023/04/17 09:41:23;;;;;;;5.65;4.20;;;;;;;21.97;49.15;93954.72;5111088;28;20578;-48
2023/04/17 09:43:52;;;;;;;4.72;3.65;;;;;;;21.83;49.04;93965.59;5111054;28;20715;-48
2023/04/17 09:46:31;;;;;;;5.18;4.25;;;;;;;21.62;49.43;93965.09;5110913;28;20612;-47
2023/04/17 09:49:00;;;;;;;4.00;3.55;;;;;;;21.43;49.45;93972.19;5111210;28;20270;-49
2023/04/17 09:51:27;;;;;;;6.05;3.45;;;;;;;21.29;49.52;93974.16;5111053;28;20185;-48
2023/04/17 09:53:57;;;;;;;5.22;3.92;;;;;;;21.21;49.66;93974.47;5111247;28;20193;-47
2023/04/17 09:56:25;;;;;;;5.97;4.20;;;;;;;21.12;49.67;93967.22;5110738;28;20185;-47
2023/04/17 09:58:54;;;;;;;4.97;3.35;;;;;;;20.74;49.68;93917.09;5110807;28;20752;-48
2023/04/17 10:01:21;;;;;;;6.13;3.85;;;;;;;21.00;49.67;93962.75;5111012;28;20193;-47
2023/04/17 10:03:49;;;;;;;8.18;4.10;;;;;;;21.02;49.84;93958.09;5110560;28;20197;-48
2023/04/17 10:06:16;;;;;;;5.47;3.90;;;;;;;21.10;49.66;93959.59;5110910;28;20193;-47
2023/04/17 10:08:43;;;;;;;7.43;4.25;;;;;;;21.18;49.59;93958.50;5110489;28;20229;-47
2023/04/17 10:11:12;;;;;;;7.80;4.13;;;;;;;21.29;49.40;93947.38;5110786;28;20189;-47
2023/04/17 10:13:42;;;;;;;3.95;3.60;;;;;;;21.41;49.11;93950.00;5109881;28;20197;-48
2023/04/17 10:16:09;;;;;;;4.15;3.50;;;;;;;21.55;48.96;93946.22;5110535;28;20189;-48
2023/04/17 10:18:35;;;;;;;5.65;3.85;;;;;;;21.65;48.94;93943.06;5110198;28;20189;-48
2023/04/17 10:21:21;;;;;;;6.32;3.67;;;;;;;21.73;48.66;93932.31;5110347;28;20196;-48
2023/04/17 10:23:48;;;;;;;6.80;4.00;;;;;;;21.88;48.51;93937.06;5110254;28;20669;-48
2023/04/17 10:26:43;;;;;;;7.68;3.50;;;;;;;22.07;48.12;93937.78;5110301;28;20232;-48
2023/04/17 10:29:11;;;;;;;3.65;3.35;;;;;;;22.18;47.98;93937.78;5110340;28;20193;-48
2023/04/17 10:32:27;;;;;;;5.28;3.92;;;;;;;22.32;47.74;93940.13;5109759;28;20193;-47
2023/04/17 10:34:54;;;;;;;6.53;4.03;;;;;;;22.46;47.34;93937.06;5027372;28;20279;-46
2023/04/17 10:37:24;;;;;;;5.00;3.90;;;;;;;22.54;47.13;93928.91;5027582;28;20252;-48
2023/04/17 10:39:55;;;;;;;4.07;3.60;;;;;;;22.66;46.77;93931.47;5027616;28;20602;-48
2023/04/17 10:42:24;;;;;;;4.78;3.53;;;;;;;22.83;46.39;93928.91;5027529;28;20188;-48
2023/04/17 10:44:57;;;;;;;5.05;4.20;;;;;;;23.06;45.96;93935.91;5027333;28;20595;-48
2023/04/17 10:47:31;;;;;;;6.35;4.05;;;;;;;23.25;45.53;93939.09;5028175;28;20222;-54
2023/04/17 10:49:59;;;;;;;5.90;4.05;;;;;;;23.39;45.26;93932.56;5027330;28;20226;-48
2023/04/17 10:52:40;;;;;;;4.53;4.05;;;;;;;23.53;45.12;93930.44;5027680;28;20305;-48
2023/04/17 10:55:08;;;;;;;5.10;3.95;;;;;;;23.66;44.58;93938.00;5027204;28;20198;-48
2023/04/17 10:57:58;;;;;;;4.75;4.22;;;;;;;23.75;44.39;93927.97;5027460;28;20187;-49
2023/04/17 11:00:31;;;;;;;3.95;3.65;;;;;;;23.79;44.47;93926.44;5027564;28;20195;-47
2023/04/17 11:02:59;;;;;;;3.53;3.22;;;;;;;23.76;44.34;93924.31;5027829;28;20283;-50
2023/04/17 11:05:26;;;;;;;4.40;4.00;;;;;;;23.77;44.29;93918.06;5026757;28;20311;-47
2023/04/17 11:07:53;;;;;;;5.50;3.75;;;;;;;23.84;44.18;93923.94;5026973;28;20195;-48
2023/04/17 11:10:20;;;;;;;7.20;3.92;;;;;;;23.95;43.84;93915.19;5042738;28;20721;-48
2023/04/17 11:12:48;;;;;;;5.75;4.15;;;;;;;24.09;43.69;93904.41;5110022;28;20196;-48
2023/04/17 11:15:16;;;;;;;10.38;4.35;;;;;;;24.13;43.33;93911.53;5110063;28;20742;-49
2023/04/17 11:17:47;;;;;;;5.40;4.40;;;;;;;24.08;43.65;93908.84;5109868;28;20196;-48
2023/04/17 11:20:16;;;;;;;5.20;4.32;;;;;;;23.95;43.56;93917.00;5109747;28;20217;-46
2023/04/17 11:22:44;;;;;;;5.22;4.22;;;;;;;23.75;43.89;93920.13;5109579;28;20317;-49
2023/04/17 11:25:22;;;;;;;4.30;3.90;;;;;;;23.47;44.03;93923.56;5109419;28;20697;-47
2023/04/17 11:27:55;;;;;;;4.95;4.45;;;;;;;23.20;44.18;93923.38;5109738;28;20216;-49
2023/04/17 11:30:28;;;;;;;6.20;4.45;;;;;;;23.00;44.58;93915.97;5108993;28;20571;-49
2023/04/17 11:32:55;;;;;;;6.72;4.97;;;;;;;22.78;44.64;93916.59;5109370;28;20538;-47
2023/04/17 11:35:28;;;;;;;5.28;4.18;;;;;;;22.61;44.57;93915.72;5108984;28;20189;-48
2023/04/17 11:38:10;;;;;;;5.03;4.50;;;;;;;22.48;44.86;93918.59;5109432;28;20206;-47